Time,TemperatureF,DewpointF,PressureIn,WindDirection,WindDirectionDegrees,WindSpeedMPH,WindSpeedGustMPH,Humidity,HourlyPrecipIn,Conditions,Clouds,dailyrainin,SolarRadiationWatts/m^2,SoftwareType,DateUTC
2013-03-06 00:01:00,71.0,55.0,-100.00,East,82,2.0,6.0,58,0.00,,,0.00,0.000000,,2013-03-06 10:01:00,
2013-03-06 00:11:00,71.0,55.0,-100.00,East,82,2.0,6.0,58,0.00,,,0.00,0.000000,,2013-03-06 10:11:00,
2013-03-06 00:21:00,71.0,55.0,-100.00,East,82,2.0,6.0,58,0.00,,,0.00,0.000000,,2013-03-06 10:21:00,
2013-03-06 00:22:00,71.0,55.0,-100.00,East,92,2.0,4.0,57,0.00,,,0.00,0.000000,,2013-03-06 10:22:00,
2013-03-06 00:42:00,71.0,55.0,-100.00,East,92,2.0,4.0,57,0.00,,,0.00,0.000000,,2013-03-06 10:42:00,
2013-03-06 00:52:00,71.0,55.0,-100.00,East,92,2.0,4.0,57,0.00,,,0.00,0.000000,,2013-03-06 10:52:00,
2013-03-06 01:02:00,71.0,55.0,-100.00,East,92,2.0,4.0,57,0.00,,,0.00,0.000000,,2013-03-06 11:02:00,
2013-03-06 01:11:00,71.0,55.0,-100.00,East,92,2.0,4.0,57,0.00,,,0.00,0.000000,,2013-03-06 11:11:00,
2013-03-06 01:42:00,71.0,55.0,-100.00,ENE,65,3.0,5.0,57,0.00,,,0.00,0.000000,,2013-03-06 11:42:00,
2013-03-06 01:52:00,71.0,55.0,-100.00,ENE,65,3.0,5.0,57,0.00,,,0.00,0.000000,,2013-03-06 11:52:00,
2013-03-06 02:01:00,71.0,55.0,-100.00,ENE,65,3.0,5.0,57,0.00,,,0.00,0.000000,,2013-03-06 12:01:00,
2013-03-06 02:11:00,71.0,55.0,-100.00,ENE,65,3.0,5.0,57,0.00,,,0.00,0.000000,,2013-03-06 12:11:00,
2013-03-06 02:21:00,71.0,55.0,-100.00,ENE,65,3.0,5.0,57,0.00,,,0.00,0.000000,,2013-03-06 12:21:00,
2013-03-06 02:43:00,70.0,55.0,-100.00,ENE,77,2.0,5.0,59,0.00,,,0.00,0.000000,,2013-03-06 12:43:00,
2013-03-06 02:52:00,70.0,55.0,-100.00,ENE,77,2.0,5.0,59,0.00,,,0.00,0.000000,,2013-03-06 12:52:00,
2013-03-06 03:02:00,70.0,55.0,-100.00,ENE,77,2.0,5.0,59,0.00,,,0.00,0.000000,,2013-03-06 13:02:00,
2013-03-06 03:11:00,70.0,55.0,-100.00,ENE,77,2.0,5.0,59,0.00,,,0.00,0.000000,,2013-03-06 13:11:00,
2013-03-06 03:21:00,70.0,55.0,-100.00,ENE,77,2.0,5.0,59,0.00,,,0.00,0.000000,,2013-03-06 13:21:00,
2013-03-06 03:42:00,69.0,54.0,-100.00,ENE,73,3.0,6.0,59,0.00,,,0.00,0.000000,,2013-03-06 13:42:00,
2013-03-06 03:52:00,69.0,54.0,-100.00,ENE,73,3.0,6.0,59,0.00,,,0.00,0.000000,,2013-03-06 13:52:00,
2013-03-06 04:01:00,69.0,54.0,-100.00,ENE,73,3.0,6.0,59,0.00,,,0.00,0.000000,,2013-03-06 14:01:00,
2013-03-06 04:11:00,69.0,54.0,-100.00,ENE,73,3.0,6.0,59,0.00,,,0.00,0.000000,,2013-03-06 14:11:00,
2013-03-06 04:21:00,69.0,54.0,-100.00,ENE,73,3.0,6.0,59,0.00,,,0.00,0.000000,,2013-03-06 14:21:00,
2013-03-06 04:42:00,68.0,53.0,-100.00,East,81,3.0,8.0,58,0.00,,,0.00,0.000000,,2013-03-06 14:42:00,
2013-03-06 04:52:00,68.0,53.0,-100.00,East,81,3.0,8.0,58,0.00,,,0.00,0.000000,,2013-03-06 14:52:00,
2013-03-06 05:01:00,68.0,53.0,-100.00,East,81,3.0,8.0,58,0.00,,,0.00,0.000000,,2013-03-06 15:01:00,
2013-03-06 05:11:00,68.0,53.0,-100.00,East,81,3.0,8.0,58,0.00,,,0.00,0.000000,,2013-03-06 15:11:00,
2013-03-06 05:21:00,68.0,53.0,-100.00,East,81,3.0,8.0,58,0.00,,,0.00,0.000000,,2013-03-06 15:21:00,
2013-03-06 05:42:00,67.0,50.0,-100.00,East,84,3.0,7.0,55,0.00,,,0.00,0.000000,,2013-03-06 15:42:00,
2013-03-06 05:52:00,67.0,50.0,-100.00,East,84,3.0,7.0,55,0.00,,,0.00,0.000000,,2013-03-06 15:52:00,
2013-03-06 06:01:00,67.0,50.0,-100.00,East,84,3.0,7.0,55,0.00,,,0.00,0.000000,,2013-03-06 16:01:00,
2013-03-06 06:11:00,67.0,50.0,-100.00,East,84,3.0,7.0,55,0.00,,,0.00,0.000000,,2013-03-06 16:11:00,
2013-03-06 06:21:00,67.0,50.0,-100.00,East,84,3.0,7.0,55,0.00,,,0.00,0.000000,,2013-03-06 16:21:00,
2013-03-06 06:42:00,67.0,49.0,-100.00,East,87,3.0,8.0,53,0.00,,,0.00,0.000000,,2013-03-06 16:42:00,
2013-03-06 06:52:00,67.0,49.0,-100.00,East,87,3.0,8.0,53,0.00,,,0.00,0.000000,,2013-03-06 16:52:00,
2013-03-06 07:01:00,67.0,49.0,-100.00,East,87,3.0,8.0,53,0.00,,,0.00,0.000000,,2013-03-06 17:01:00,
2013-03-06 07:11:00,67.0,49.0,-100.00,East,87,3.0,8.0,53,0.00,,,0.00,0.000000,,2013-03-06 17:11:00,
2013-03-06 07:21:00,67.0,49.0,-100.00,East,87,3.0,8.0,53,0.00,,,0.00,0.000000,,2013-03-06 17:21:00,
2013-03-06 07:22:00,66.0,48.0,-100.00,East,84,3.0,7.0,52,0.00,,,0.00,2.000000,,2013-03-06 17:22:00,
2013-03-06 07:42:00,66.0,48.0,-100.00,East,84,3.0,7.0,52,0.00,,,0.00,2.000000,,2013-03-06 17:42:00,
2013-03-06 07:52:00,66.0,48.0,-100.00,East,84,3.0,7.0,52,0.00,,,0.00,2.000000,,2013-03-06 17:52:00,
2013-03-06 08:01:00,66.0,48.0,-100.00,East,84,3.0,7.0,52,0.00,,,0.00,2.000000,,2013-03-06 18:01:00,
2013-03-06 08:42:00,69.0,47.0,-100.00,East,86,3.0,8.0,45,0.00,,,0.00,114.000000,,2013-03-06 18:42:00,
2013-03-06 08:52:00,69.0,47.0,-100.00,East,86,3.0,8.0,45,0.00,,,0.00,114.000000,,2013-03-06 18:52:00,
2013-03-06 09:02:00,69.0,47.0,-100.00,East,86,3.0,8.0,45,0.00,,,0.00,114.000000,,2013-03-06 19:02:00,
2013-03-06 09:11:00,69.0,47.0,-100.00,East,86,3.0,8.0,45,0.00,,,0.00,114.000000,,2013-03-06 19:11:00,
2013-03-06 09:21:00,69.0,47.0,-100.00,East,86,3.0,8.0,45,0.00,,,0.00,114.000000,,2013-03-06 19:21:00,
2013-03-06 09:43:00,75.0,58.0,-100.00,ESE,113,2.0,6.0,56,0.00,,,0.00,338.000000,,2013-03-06 19:43:00,
2013-03-06 09:53:00,75.0,58.0,-100.00,ESE,113,2.0,6.0,56,0.00,,,0.00,338.000000,,2013-03-06 19:53:00,
2013-03-06 10:01:00,75.0,58.0,-100.00,ESE,113,2.0,6.0,56,0.00,,,0.00,338.000000,,2013-03-06 20:01:00,
2013-03-06 10:11:00,75.0,58.0,-100.00,ESE,113,2.0,6.0,56,0.00,,,0.00,338.000000,,2013-03-06 20:11:00,
2013-03-06 10:21:00,75.0,58.0,-100.00,ESE,113,2.0,6.0,56,0.00,,,0.00,338.000000,,2013-03-06 20:21:00,
2013-03-06 10:43:00,77.0,60.0,-100.00,SW,235,3.0,8.0,56,0.00,,,0.00,542.000000,,2013-03-06 20:43:00,
2013-03-06 10:52:00,77.0,60.0,-100.00,SW,235,3.0,8.0,56,0.00,,,0.00,542.000000,,2013-03-06 20:52:00,
2013-03-06 11:02:00,77.0,60.0,-100.00,SW,235,3.0,8.0,56,0.00,,,0.00,542.000000,,2013-03-06 21:02:00,
2013-03-06 11:11:00,77.0,60.0,-100.00,SW,235,3.0,8.0,56,0.00,,,0.00,542.000000,,2013-03-06 21:11:00,
2013-03-06 11:21:00,77.0,60.0,-100.00,SW,235,3.0,8.0,56,0.00,,,0.00,542.000000,,2013-03-06 21:21:00,
2013-03-06 11:42:00,78.0,61.0,-100.00,West,263,4.0,8.0,56,0.00,,,0.00,737.000000,,2013-03-06 21:42:00,
2013-03-06 11:52:00,78.0,61.0,-100.00,West,263,4.0,8.0,56,0.00,,,0.00,737.000000,,2013-03-06 21:52:00,
2013-03-06 12:01:00,78.0,61.0,-100.00,West,263,4.0,8.0,56,0.00,,,0.00,737.000000,,2013-03-06 22:01:00,
2013-03-06 12:11:00,78.0,61.0,-100.00,West,263,4.0,8.0,56,0.00,,,0.00,737.000000,,2013-03-06 22:11:00,
2013-03-06 12:21:00,78.0,61.0,-100.00,West,263,4.0,8.0,56,0.00,,,0.00,737.000000,,2013-03-06 22:21:00,
2013-03-06 12:42:00,78.0,58.0,-100.00,West,272,5.0,10.0,50,0.00,,,0.00,852.000000,,2013-03-06 22:42:00,
2013-03-06 12:52:00,78.0,58.0,-100.00,West,272,5.0,10.0,50,0.00,,,0.00,852.000000,,2013-03-06 22:52:00,
2013-03-06 13:01:00,78.0,58.0,-100.00,West,272,5.0,10.0,50,0.00,,,0.00,852.000000,,2013-03-06 23:01:00,
2013-03-06 13:11:00,78.0,58.0,-100.00,West,272,5.0,10.0,50,0.00,,,0.00,852.000000,,2013-03-06 23:11:00,
2013-03-06 13:21:00,78.0,58.0,-100.00,West,272,5.0,10.0,50,0.00,,,0.00,852.000000,,2013-03-06 23:21:00,
2013-03-06 13:42:00,79.0,59.0,-100.00,West,272,5.0,12.0,50,0.00,,,0.00,961.000000,,2013-03-06 23:42:00,
2013-03-06 13:52:00,79.0,59.0,-100.00,West,272,5.0,12.0,50,0.00,,,0.00,961.000000,,2013-03-06 23:52:00,
2013-03-06 14:01:00,79.0,59.0,-100.00,West,272,5.0,12.0,50,0.00,,,0.00,961.000000,,2013-03-07 00:01:00,
2013-03-06 14:11:00,79.0,59.0,-100.00,West,272,5.0,12.0,50,0.00,,,0.00,961.000000,,2013-03-07 00:11:00,
2013-03-06 14:21:00,79.0,59.0,-100.00,West,272,5.0,12.0,50,0.00,,,0.00,961.000000,,2013-03-07 00:21:00,
2013-03-06 14:42:00,80.0,60.0,-100.00,West,269,6.0,12.0,50,0.00,,,0.00,971.000000,,2013-03-07 00:42:00,
2013-03-06 14:52:00,80.0,60.0,-100.00,West,269,6.0,12.0,50,0.00,,,0.00,971.000000,,2013-03-07 00:52:00,
2013-03-06 15:01:00,80.0,60.0,-100.00,West,269,6.0,12.0,50,0.00,,,0.00,971.000000,,2013-03-07 01:01:00,
2013-03-06 15:11:00,80.0,60.0,-100.00,West,269,6.0,12.0,50,0.00,,,0.00,971.000000,,2013-03-07 01:11:00,
2013-03-06 15:21:00,80.0,60.0,-100.00,West,269,6.0,12.0,50,0.00,,,0.00,971.000000,,2013-03-07 01:21:00,
2013-03-06 15:42:00,79.0,63.0,-100.00,West,277,6.0,13.0,59,0.00,,,0.00,465.000000,,2013-03-07 01:42:00,
2013-03-06 15:52:00,79.0,63.0,-100.00,West,277,6.0,13.0,59,0.00,,,0.00,465.000000,,2013-03-07 01:52:00,
2013-03-06 16:01:00,79.0,63.0,-100.00,West,277,6.0,13.0,59,0.00,,,0.00,465.000000,,2013-03-07 02:01:00,
2013-03-06 16:11:00,79.0,63.0,-100.00,West,277,6.0,13.0,59,0.00,,,0.00,465.000000,,2013-03-07 02:11:00,
2013-03-06 16:21:00,79.0,63.0,-100.00,West,277,6.0,13.0,59,0.00,,,0.00,465.000000,,2013-03-07 02:21:00,
2013-03-06 17:01:00,76.0,62.0,-100.00,WNW,286,4.0,10.0,61,0.00,,,0.00,85.000000,,2013-03-07 03:01:00,
2013-03-06 17:11:00,76.0,62.0,-100.00,WNW,286,4.0,10.0,61,0.00,,,0.00,85.000000,,2013-03-07 03:11:00,
2013-03-06 17:21:00,76.0,62.0,-100.00,WNW,286,4.0,10.0,61,0.00,,,0.00,85.000000,,2013-03-07 03:21:00,
2013-03-06 17:42:00,75.0,62.0,-100.00,NW,311,4.0,11.0,63,0.00,,,0.00,34.000000,,2013-03-07 03:42:00,
2013-03-06 17:52:00,75.0,62.0,-100.00,NW,311,4.0,11.0,63,0.00,,,0.00,34.000000,,2013-03-07 03:52:00,
2013-03-06 18:01:00,75.0,62.0,-100.00,NW,311,4.0,11.0,63,0.00,,,0.00,34.000000,,2013-03-07 04:01:00,
2013-03-06 18:11:00,75.0,62.0,-100.00,NW,311,4.0,11.0,63,0.00,,,0.00,34.000000,,2013-03-07 04:11:00,
2013-03-06 18:21:00,75.0,62.0,-100.00,NW,311,4.0,11.0,63,0.00,,,0.00,34.000000,,2013-03-07 04:21:00,
2013-03-06 18:22:00,74.0,61.0,-100.00,NW,309,3.0,9.0,64,0.00,,,0.00,20.000000,,2013-03-07 04:22:00,
2013-03-06 18:42:00,74.0,61.0,-100.00,NW,309,3.0,9.0,64,0.00,,,0.00,20.000000,,2013-03-07 04:42:00,
2013-03-06 18:52:00,74.0,61.0,-100.00,NW,309,3.0,9.0,64,0.00,,,0.00,20.000000,,2013-03-07 04:52:00,
2013-03-06 19:01:00,74.0,61.0,-100.00,NW,309,3.0,9.0,64,0.00,,,0.00,20.000000,,2013-03-07 05:01:00,
2013-03-06 19:12:00,74.0,61.0,-100.00,NW,309,3.0,9.0,64,0.00,,,0.00,20.000000,,2013-03-07 05:12:00,
2013-03-06 19:42:00,74.0,61.0,-100.00,NNW,337,2.0,7.0,64,0.00,,,0.00,4.000000,,2013-03-07 05:42:00,
2013-03-06 19:52:00,74.0,61.0,-100.00,NNW,337,2.0,7.0,64,0.00,,,0.00,4.000000,,2013-03-07 05:52:00,
2013-03-06 20:01:00,74.0,61.0,-100.00,NNW,337,2.0,7.0,64,0.00,,,0.00,4.000000,,2013-03-07 06:01:00,
2013-03-06 20:11:00,74.0,61.0,-100.00,NNW,337,2.0,7.0,64,0.00,,,0.00,4.000000,,2013-03-07 06:11:00,
2013-03-06 20:21:00,74.0,61.0,-100.00,NNW,337,2.0,7.0,64,0.00,,,0.00,4.000000,,2013-03-07 06:21:00,
2013-03-06 20:42:00,73.0,58.0,-100.00,ESE,107,1.0,4.0,60,0.00,,,0.00,0.000000,,2013-03-07 06:42:00,
2013-03-06 20:52:00,73.0,58.0,-100.00,ESE,107,1.0,4.0,60,0.00,,,0.00,0.000000,,2013-03-07 06:52:00,
2013-03-06 21:01:00,73.0,58.0,-100.00,ESE,107,1.0,4.0,60,0.00,,,0.00,0.000000,,2013-03-07 07:01:00,
2013-03-06 21:11:00,73.0,58.0,-100.00,ESE,107,1.0,4.0,60,0.00,,,0.00,0.000000,,2013-03-07 07:11:00,
2013-03-06 21:21:00,73.0,58.0,-100.00,ESE,107,1.0,4.0,60,0.00,,,0.00,0.000000,,2013-03-07 07:21:00,
2013-03-06 21:43:00,71.0,58.0,-100.00,East,79,2.0,5.0,63,0.00,,,0.00,0.000000,,2013-03-07 07:43:00,
2013-03-06 21:52:00,71.0,58.0,-100.00,East,79,2.0,5.0,63,0.00,,,0.00,0.000000,,2013-03-07 07:52:00,
2013-03-06 22:02:00,71.0,58.0,-100.00,East,79,2.0,5.0,63,0.00,,,0.00,0.000000,,2013-03-07 08:02:00,
2013-03-06 22:11:00,71.0,58.0,-100.00,East,79,2.0,5.0,63,0.00,,,0.00,0.000000,,2013-03-07 08:11:00,
2013-03-06 22:21:00,71.0,58.0,-100.00,East,79,2.0,5.0,63,0.00,,,0.00,0.000000,,2013-03-07 08:21:00,
2013-03-06 22:44:00,70.0,54.0,-100.00,East,87,2.0,5.0,56,0.00,,,0.00,0.000000,,2013-03-07 08:44:00,
2013-03-06 22:54:00,70.0,54.0,-100.00,East,87,2.0,5.0,56,0.00,,,0.00,0.000000,,2013-03-07 08:54:00,
2013-03-06 23:02:00,70.0,54.0,-100.00,East,87,2.0,5.0,56,0.00,,,0.00,0.000000,,2013-03-07 09:02:00,
2013-03-06 23:11:00,70.0,54.0,-100.00,East,87,2.0,5.0,56,0.00,,,0.00,0.000000,,2013-03-07 09:11:00,
2013-03-06 23:21:00,70.0,54.0,-100.00,East,87,2.0,5.0,56,0.00,,,0.00,0.000000,,2013-03-07 09:21:00,
2013-03-06 23:43:00,71.0,54.0,-100.00,East,93,1.0,3.0,55,0.00,,,0.00,0.000000,,2013-03-07 09:43:00,
2013-03-06 23:53:00,71.0,54.0,-100.00,East,93,1.0,3.0,55,0.00,,,0.00,0.000000,,2013-03-07 09:53:00,